sensor_id;sensor_type;location;lat;lon;timestamp;P1;durP1;ratioP1;P2;durP2;ratioP2
23159;SDS011;11748;50.844;4.396;2023-07-13T00:00:53;4.18;;;1.75;;
23159;SDS011;11748;50.844;4.396;2023-07-13T00:03:18;6.55;;;1.80;;
23159;SDS011;11748;50.844;4.396;2023-07-13T00:05:44;9.30;;;1.75;;
23159;SDS011;11748;50.844;4.396;2023-07-13T00:08:09;6.05;;;1.52;;
23159;SDS011;11748;50.844;4.396;2023-07-13T00:10:42;9.25;;;1.80;;
23159;SDS011;11748;50.844;4.396;2023-07-13T00:13:09;9.82;;;2.13;;
23159;SDS011;11748;50.844;4.396;2023-07-13T00:15:35;8.55;;;2.17;;
23159;SDS011;11748;50.844;4.396;2023-07-13T00:18:01;7.82;;;1.65;;
23159;SDS011;11748;50.844;4.396;2023-07-13T00:20:26;6.65;;;1.80;;
23159;SDS011;11748;50.844;4.396;2023-07-13T00:22:53;5.80;;;1.77;;
23159;SDS011;11748;50.844;4.396;2023-07-13T00:25:20;9.32;;;2.20;;
23159;SDS011;11748;50.844;4.396;2023-07-13T00:27:47;6.35;;;1.80;;
23159;SDS011;11748;50.844;4.396;2023-07-13T00:30:14;5.95;;;1.80;;
23159;SDS011;11748;50.844;4.396;2023-07-13T00:32:40;7.15;;;1.83;;
23159;SDS011;11748;50.844;4.396;2023-07-13T00:35:06;5.28;;;1.45;;
23159;SDS011;11748;50.844;4.396;2023-07-13T00:37:32;7.78;;;1.67;;
23159;SDS011;11748;50.844;4.396;2023-07-13T00:39:58;7.38;;;1.85;;
23159;SDS011;11748;50.844;4.396;2023-07-13T00:42:25;8.10;;;1.85;;
23159;SDS011;11748;50.844;4.396;2023-07-13T00:45:04;6.53;;;1.58;;
23159;SDS011;11748;50.844;4.396;2023-07-13T00:47:42;7.45;;;1.75;;
23159;SDS011;11748;50.844;4.396;2023-07-13T00:50:10;11.10;;;1.95;;
23159;SDS011;11748;50.844;4.396;2023-07-13T00:52:40;6.93;;;2.15;;
23159;SDS011;11748;50.844;4.396;2023-07-13T00:55:11;6.63;;;1.83;;
23159;SDS011;11748;50.844;4.396;2023-07-13T00:57:38;9.45;;;1.75;;
23159;SDS011;11748;50.844;4.396;2023-07-13T01:00:04;9.80;;;2.10;;
23159;SDS011;11748;50.844;4.396;2023-07-13T01:02:38;10.10;;;1.90;;
23159;SDS011;11748;50.844;4.396;2023-07-13T01:05:11;10.88;;;1.80;;
23159;SDS011;11748;50.844;4.396;2023-07-13T01:07:41;6.13;;;1.40;;
23159;SDS011;11748;50.844;4.396;2023-07-13T01:10:10;8.75;;;1.92;;
23159;SDS011;11748;50.844;4.396;2023-07-13T01:12:39;10.38;;;2.33;;
23159;SDS011;11748;50.844;4.396;2023-07-13T01:15:05;7.13;;;1.67;;
23159;SDS011;11748;50.844;4.396;2023-07-13T01:17:51;10.32;;;1.83;;
23159;SDS011;11748;50.844;4.396;2023-07-13T01:20:17;8.88;;;1.92;;
23159;SDS011;11748;50.844;4.396;2023-07-13T01:22:42;7.30;;;1.92;;
23159;SDS011;11748;50.844;4.396;2023-07-13T01:25:08;8.40;;;2.00;;
23159;SDS011;11748;50.844;4.396;2023-07-13T01:27:34;7.72;;;1.90;;
23159;SDS011;11748;50.844;4.396;2023-07-13T01:30:00;8.85;;;2.00;;
23159;SDS011;11748;50.844;4.396;2023-07-13T01:32:29;7.28;;;1.80;;
23159;SDS011;11748;50.844;4.396;2023-07-13T01:34:56;4.80;;;1.75;;
23159;SDS011;11748;50.844;4.396;2023-07-13T01:37:25;5.97;;;1.98;;
23159;SDS011;11748;50.844;4.396;2023-07-13T01:39:51;10.85;;;1.92;;
23159;SDS011;11748;50.844;4.396;2023-07-13T01:42:17;8.70;;;2.10;;
23159;SDS011;11748;50.844;4.396;2023-07-13T01:44:42;5.30;;;1.73;;
23159;SDS011;11748;50.844;4.396;2023-07-13T01:47:09;9.15;;;2.25;;
23159;SDS011;11748;50.844;4.396;2023-07-13T01:49:35;9.20;;;2.20;;
23159;SDS011;11748;50.844;4.396;2023-07-13T01:52:02;10.25;;;2.10;;
23159;SDS011;11748;50.844;4.396;2023-07-13T01:54:28;5.60;;;1.75;;
23159;SDS011;11748;50.844;4.396;2023-07-13T01:56:54;6.63;;;1.98;;
23159;SDS011;11748;50.844;4.396;2023-07-13T01:59:19;12.02;;;1.85;;
23159;SDS011;11748;50.844;4.396;2023-07-13T02:01:45;11.30;;;2.38;;
23159;SDS011;11748;50.844;4.396;2023-07-13T02:04:10;10.07;;;2.25;;
23159;SDS011;11748;50.844;4.396;2023-07-13T02:06:36;7.28;;;1.95;;
23159;SDS011;11748;50.844;4.396;2023-07-13T02:09:01;9.00;;;1.83;;
23159;SDS011;11748;50.844;4.396;2023-07-13T02:11:27;8.85;;;2.35;;
23159;SDS011;11748;50.844;4.396;2023-07-13T02:13:57;12.32;;;2.40;;
23159;SDS011;11748;50.844;4.396;2023-07-13T02:16:27;7.63;;;2.03;;
23159;SDS011;11748;50.844;4.396;2023-07-13T02:18:53;9.13;;;2.28;;
23159;SDS011;11748;50.844;4.396;2023-07-13T02:21:20;12.85;;;2.33;;
23159;SDS011;11748;50.844;4.396;2023-07-13T02:23:46;8.27;;;2.22;;
23159;SDS011;11748;50.844;4.396;2023-07-13T02:26:12;11.00;;;2.28;;
23159;SDS011;11748;50.844;4.396;2023-07-13T02:28:38;6.70;;;1.88;;
23159;SDS011;11748;50.844;4.396;2023-07-13T02:31:05;10.57;;;2.47;;
23159;SDS011;11748;50.844;4.396;2023-07-13T02:33:35;10.13;;;2.45;;
23159;SDS011;11748;50.844;4.396;2023-07-13T02:36:00;8.13;;;2.30;;
23159;SDS011;11748;50.844;4.396;2023-07-13T02:38:26;9.70;;;2.28;;
23159;SDS011;11748;50.844;4.396;2023-07-13T02:40:52;10.43;;;2.65;;
23159;SDS011;11748;50.844;4.396;2023-07-13T02:43:18;14.88;;;2.60;;
23159;SDS011;11748;50.844;4.396;2023-07-13T02:45:44;7.38;;;2.53;;
23159;SDS011;11748;50.844;4.396;2023-07-13T02:48:10;6.75;;;2.35;;
23159;SDS011;11748;50.844;4.396;2023-07-13T02:50:36;13.48;;;2.55;;
23159;SDS011;11748;50.844;4.396;2023-07-13T02:53:01;7.22;;;1.92;;
23159;SDS011;11748;50.844;4.396;2023-07-13T02:55:27;11.52;;;3.05;;
23159;SDS011;11748;50.844;4.396;2023-07-13T02:57:52;10.45;;;1.92;;
23159;SDS011;11748;50.844;4.396;2023-07-13T03:00:19;12.80;;;2.72;;
23159;SDS011;11748;50.844;4.396;2023-07-13T03:02:45;7.15;;;2.10;;
23159;SDS011;11748;50.844;4.396;2023-07-13T03:05:10;11.77;;;3.03;;
23159;SDS011;11748;50.844;4.396;2023-07-13T03:07:37;10.20;;;2.47;;
23159;SDS011;11748;50.844;4.396;2023-07-13T03:10:04;8.85;;;2.58;;
23159;SDS011;11748;50.844;4.396;2023-07-13T03:12:31;9.25;;;2.10;;
23159;SDS011;11748;50.844;4.396;2023-07-13T03:14:57;9.82;;;2.50;;
23159;SDS011;11748;50.844;4.396;2023-07-13T03:17:23;14.80;;;3.10;;
23159;SDS011;11748;50.844;4.396;2023-07-13T03:19:49;9.82;;;2.42;;
23159;SDS011;11748;50.844;4.396;2023-07-13T03:22:19;9.65;;;2.42;;
23159;SDS011;11748;50.844;4.396;2023-07-13T03:24:44;9.05;;;2.70;;
23159;SDS011;11748;50.844;4.396;2023-07-13T03:27:10;12.77;;;2.95;;
23159;SDS011;11748;50.844;4.396;2023-07-13T03:29:36;9.00;;;2.40;;
23159;SDS011;11748;50.844;4.396;2023-07-13T03:32:02;5.72;;;2.17;;
23159;SDS011;11748;50.844;4.396;2023-07-13T03:34:29;10.45;;;2.60;;
23159;SDS011;11748;50.844;4.396;2023-07-13T03:36:55;8.02;;;2.33;;
23159;SDS011;11748;50.844;4.396;2023-07-13T03:39:21;11.85;;;2.60;;
23159;SDS011;11748;50.844;4.396;2023-07-13T03:41:47;12.85;;;2.58;;
23159;SDS011;11748;50.844;4.396;2023-07-13T03:44:15;10.95;;;2.53;;
23159;SDS011;11748;50.844;4.396;2023-07-13T03:46:42;6.25;;;2.63;;
23159;SDS011;11748;50.844;4.396;2023-07-13T03:49:09;12.52;;;2.35;;
23159;SDS011;11748;50.844;4.396;2023-07-13T03:51:35;19.38;;;3.10;;
23159;SDS011;11748;50.844;4.396;2023-07-13T03:54:01;10.60;;;2.88;;
23159;SDS011;11748;50.844;4.396;2023-07-13T03:56:28;11.45;;;3.00;;
23159;SDS011;11748;50.844;4.396;2023-07-13T03:58:55;11.32;;;2.35;;
23159;SDS011;11748;50.844;4.396;2023-07-13T04:01:21;10.05;;;2.25;;
23159;SDS011;11748;50.844;4.396;2023-07-13T04:03:49;9.73;;;2.45;;
23159;SDS011;11748;50.844;4.396;2023-07-13T04:06:17;15.13;;;2.70;;
23159;SDS011;11748;50.844;4.396;2023-07-13T04:08:50;10.88;;;2.47;;
23159;SDS011;11748;50.844;4.396;2023-07-13T04:11:18;13.10;;;2.70;;
23159;SDS011;11748;50.844;4.396;2023-07-13T04:13:45;10.30;;;3.03;;
23159;SDS011;11748;50.844;4.396;2023-07-13T04:16:12;9.48;;;2.47;;
23159;SDS011;11748;50.844;4.396;2023-07-13T04:18:38;14.45;;;2.78;;
23159;SDS011;11748;50.844;4.396;2023-07-13T04:21:04;9.25;;;2.42;;
23159;SDS011;11748;50.844;4.396;2023-07-13T04:23:29;11.23;;;3.35;;
23159;SDS011;11748;50.844;4.396;2023-07-13T04:25:55;10.90;;;2.92;;
23159;SDS011;11748;50.844;4.396;2023-07-13T04:28:21;10.95;;;2.65;;
23159;SDS011;11748;50.844;4.396;2023-07-13T04:30:48;10.50;;;3.10;;
23159;SDS011;11748;50.844;4.396;2023-07-13T04:33:15;11.38;;;2.40;;
23159;SDS011;11748;50.844;4.396;2023-07-13T04:35:49;15.32;;;2.70;;
23159;SDS011;11748;50.844;4.396;2023-07-13T04:38:19;13.45;;;3.15;;
23159;SDS011;11748;50.844;4.396;2023-07-13T04:40:45;13.80;;;2.80;;
23159;SDS011;11748;50.844;4.396;2023-07-13T04:43:11;10.57;;;2.63;;
23159;SDS011;11748;50.844;4.396;2023-07-13T04:45:38;12.82;;;3.22;;
23159;SDS011;11748;50.844;4.396;2023-07-13T04:48:04;12.35;;;3.15;;
23159;SDS011;11748;50.844;4.396;2023-07-13T04:50:29;11.80;;;3.10;;
23159;SDS011;11748;50.844;4.396;2023-07-13T04:52:55;15.65;;;3.28;;
23159;SDS011;11748;50.844;4.396;2023-07-13T04:55:21;13.23;;;3.00;;
23159;SDS011;11748;50.844;4.396;2023-07-13T04:57:46;13.68;;;3.10;;
23159;SDS011;11748;50.844;4.396;2023-07-13T05:00:13;11.45;;;2.97;;
23159;SDS011;11748;50.844;4.396;2023-07-13T05:02:42;12.48;;;2.75;;
23159;SDS011;11748;50.844;4.396;2023-07-13T05:05:09;20.65;;;3.92;;
23159;SDS011;11748;50.844;4.396;2023-07-13T05:07:35;12.50;;;3.33;;
23159;SDS011;11748;50.844;4.396;2023-07-13T05:10:01;11.50;;;2.80;;
23159;SDS011;11748;50.844;4.396;2023-07-13T05:12:29;11.82;;;3.15;;
23159;SDS011;11748;50.844;4.396;2023-07-13T05:14:54;10.95;;;2.83;;
23159;SDS011;11748;50.844;4.396;2023-07-13T05:17:20;13.95;;;3.70;;
23159;SDS011;11748;50.844;4.396;2023-07-13T05:19:46;18.20;;;3.40;;
23159;SDS011;11748;50.844;4.396;2023-07-13T05:22:12;13.77;;;3.45;;
23159;SDS011;11748;50.844;4.396;2023-07-13T05:24:37;12.73;;;2.78;;
23159;SDS011;11748;50.844;4.396;2023-07-13T05:27:04;14.05;;;3.15;;
23159;SDS011;11748;50.844;4.396;2023-07-13T05:29:30;11.95;;;2.70;;
23159;SDS011;11748;50.844;4.396;2023-07-13T05:31:55;13.18;;;3.20;;
23159;SDS011;11748;50.844;4.396;2023-07-13T05:34:21;12.73;;;2.88;;
23159;SDS011;11748;50.844;4.396;2023-07-13T05:36:48;17.10;;;3.20;;
23159;SDS011;11748;50.844;4.396;2023-07-13T05:39:14;6.95;;;2.67;;
23159;SDS011;11748;50.844;4.396;2023-07-13T05:41:40;12.57;;;3.03;;
23159;SDS011;11748;50.844;4.396;2023-07-13T05:44:05;12.50;;;2.92;;
23159;SDS011;11748;50.844;4.396;2023-07-13T05:46:31;12.10;;;3.15;;
23159;SDS011;11748;50.844;4.396;2023-07-13T05:48:57;19.67;;;3.00;;
23159;SDS011;11748;50.844;4.396;2023-07-13T05:51:22;12.45;;;2.92;;
23159;SDS011;11748;50.844;4.396;2023-07-13T05:53:48;13.45;;;3.05;;
23159;SDS011;11748;50.844;4.396;2023-07-13T05:56:14;13.88;;;3.22;;
23159;SDS011;11748;50.844;4.396;2023-07-13T05:58:39;16.60;;;3.75;;
23159;SDS011;11748;50.844;4.396;2023-07-13T06:01:06;16.88;;;3.30;;
23159;SDS011;11748;50.844;4.396;2023-07-13T06:03:35;15.95;;;3.90;;
23159;SDS011;11748;50.844;4.396;2023-07-13T06:06:03;20.23;;;3.22;;
23159;SDS011;11748;50.844;4.396;2023-07-13T06:08:29;18.73;;;3.47;;
23159;SDS011;11748;50.844;4.396;2023-07-13T06:11:01;8.93;;;3.05;;
23159;SDS011;11748;50.844;4.396;2023-07-13T06:13:37;13.23;;;3.28;;
23159;SDS011;11748;50.844;4.396;2023-07-13T06:16:03;14.63;;;3.15;;
23159;SDS011;11748;50.844;4.396;2023-07-13T06:18:33;9.40;;;2.88;;
23159;SDS011;11748;50.844;4.396;2023-07-13T06:20:59;11.82;;;2.67;;
23159;SDS011;11748;50.844;4.396;2023-07-13T06:23:25;12.80;;;2.78;;
23159;SDS011;11748;50.844;4.396;2023-07-13T06:25:50;14.25;;;3.47;;
23159;SDS011;11748;50.844;4.396;2023-07-13T06:28:16;20.60;;;7.82;;
23159;SDS011;11748;50.844;4.396;2023-07-13T06:30:42;12.40;;;3.38;;
23159;SDS011;11748;50.844;4.396;2023-07-13T06:33:07;12.13;;;3.33;;
23159;SDS011;11748;50.844;4.396;2023-07-13T06:35:33;11.25;;;2.55;;
23159;SDS011;11748;50.844;4.396;2023-07-13T06:37:59;13.57;;;2.85;;
23159;SDS011;11748;50.844;4.396;2023-07-13T06:40:24;12.77;;;2.63;;
23159;SDS011;11748;50.844;4.396;2023-07-13T06:42:50;15.25;;;3.40;;
23159;SDS011;11748;50.844;4.396;2023-07-13T06:45:16;8.65;;;2.80;;
23159;SDS011;11748;50.844;4.396;2023-07-13T06:47:41;15.15;;;2.80;;
23159;SDS011;11748;50.844;4.396;2023-07-13T06:50:07;11.45;;;3.20;;
23159;SDS011;11748;50.844;4.396;2023-07-13T06:52:33;15.27;;;2.97;;
23159;SDS011;11748;50.844;4.396;2023-07-13T06:54:59;12.13;;;2.92;;
23159;SDS011;11748;50.844;4.396;2023-07-13T06:57:25;12.18;;;2.90;;
23159;SDS011;11748;50.844;4.396;2023-07-13T06:59:51;15.23;;;3.05;;
23159;SDS011;11748;50.844;4.396;2023-07-13T07:02:17;9.38;;;3.13;;
23159;SDS011;11748;50.844;4.396;2023-07-13T07:04:42;10.73;;;2.58;;
23159;SDS011;11748;50.844;4.396;2023-07-13T07:07:08;13.70;;;2.90;;
23159;SDS011;11748;50.844;4.396;2023-07-13T07:09:33;7.38;;;2.70;;
23159;SDS011;11748;50.844;4.396;2023-07-13T07:11:59;13.95;;;3.30;;
23159;SDS011;11748;50.844;4.396;2023-07-13T07:14:26;12.48;;;2.38;;
23159;SDS011;11748;50.844;4.396;2023-07-13T07:16:51;14.75;;;2.97;;
23159;SDS011;11748;50.844;4.396;2023-07-13T07:19:17;16.48;;;3.13;;
23159;SDS011;11748;50.844;4.396;2023-07-13T07:21:42;13.13;;;2.58;;
23159;SDS011;11748;50.844;4.396;2023-07-13T07:24:08;11.98;;;3.15;;
23159;SDS011;11748;50.844;4.396;2023-07-13T07:26:33;11.70;;;2.88;;
23159;SDS011;11748;50.844;4.396;2023-07-13T07:28:59;11.02;;;2.90;;
23159;SDS011;11748;50.844;4.396;2023-07-13T07:31:25;12.88;;;3.10;;
23159;SDS011;11748;50.844;4.396;2023-07-13T07:33:51;11.60;;;2.58;;
23159;SDS011;11748;50.844;4.396;2023-07-13T07:36:16;10.32;;;2.80;;
23159;SDS011;11748;50.844;4.396;2023-07-13T07:38:42;13.20;;;2.63;;
23159;SDS011;11748;50.844;4.396;2023-07-13T07:41:08;12.50;;;3.67;;
23159;SDS011;11748;50.844;4.396;2023-07-13T07:43:34;10.68;;;2.53;;
23159;SDS011;11748;50.844;4.396;2023-07-13T07:46:00;9.30;;;2.47;;
23159;SDS011;11748;50.844;4.396;2023-07-13T07:48:26;11.57;;;2.53;;
23159;SDS011;11748;50.844;4.396;2023-07-13T07:50:52;10.48;;;2.63;;
23159;SDS011;11748;50.844;4.396;2023-07-13T07:53:17;12.10;;;2.58;;
23159;SDS011;11748;50.844;4.396;2023-07-13T07:55:43;14.07;;;3.83;;
23159;SDS011;11748;50.844;4.396;2023-07-13T07:58:08;15.55;;;2.70;;
23159;SDS011;11748;50.844;4.396;2023-07-13T08:00:34;12.48;;;2.75;;
23159;SDS011;11748;50.844;4.396;2023-07-13T08:03:00;12.50;;;2.50;;
23159;SDS011;11748;50.844;4.396;2023-07-13T08:05:26;10.30;;;2.63;;
23159;SDS011;11748;50.844;4.396;2023-07-13T08:07:52;11.05;;;2.63;;
23159;SDS011;11748;50.844;4.396;2023-07-13T08:10:18;10.18;;;2.78;;
23159;SDS011;11748;50.844;4.396;2023-07-13T08:12:44;18.73;;;2.90;;
23159;SDS011;11748;50.844;4.396;2023-07-13T08:15:11;13.55;;;2.30;;
23159;SDS011;11748;50.844;4.396;2023-07-13T08:17:39;11.73;;;2.63;;
23159;SDS011;11748;50.844;4.396;2023-07-13T08:20:05;13.07;;;3.10;;
23159;SDS011;11748;50.844;4.396;2023-07-13T08:22:32;10.57;;;2.92;;
23159;SDS011;11748;50.844;4.396;2023-07-13T08:24:58;9.43;;;2.17;;
23159;SDS011;11748;50.844;4.396;2023-07-13T08:27:24;5.95;;;2.22;;
23159;SDS011;11748;50.844;4.396;2023-07-13T08:29:52;10.10;;;2.85;;
23159;SDS011;11748;50.844;4.396;2023-07-13T08:32:18;15.30;;;2.50;;
23159;SDS011;11748;50.844;4.396;2023-07-13T08:34:45;12.35;;;2.35;;
23159;SDS011;11748;50.844;4.396;2023-07-13T08:37:11;10.15;;;2.03;;
23159;SDS011;11748;50.844;4.396;2023-07-13T08:39:37;14.77;;;2.75;;
23159;SDS011;11748;50.844;4.396;2023-07-13T08:42:10;8.25;;;2.17;;
23159;SDS011;11748;50.844;4.396;2023-07-13T08:44:44;10.48;;;2.20;;
23159;SDS011;11748;50.844;4.396;2023-07-13T08:47:31;9.23;;;2.35;;
23159;SDS011;11748;50.844;4.396;2023-07-13T08:50:02;8.10;;;2.55;;
23159;SDS011;11748;50.844;4.396;2023-07-13T08:52:35;12.52;;;2.70;;
23159;SDS011;11748;50.844;4.396;2023-07-13T08:55:05;6.05;;;2.10;;
23159;SDS011;11748;50.844;4.396;2023-07-13T08:57:40;8.18;;;2.03;;
23159;SDS011;11748;50.844;4.396;2023-07-13T09:00:10;14.02;;;2.70;;
23159;SDS011;11748;50.844;4.396;2023-07-13T09:02:56;8.32;;;2.47;;
23159;SDS011;11748;50.844;4.396;2023-07-13T09:05:33;9.55;;;2.50;;
23159;SDS011;11748;50.844;4.396;2023-07-13T09:08:25;5.18;;;2.00;;
23159;SDS011;11748;50.844;4.396;2023-07-13T09:11:23;8.70;;;2.38;;
23159;SDS011;11748;50.844;4.396;2023-07-13T09:16:36;7.43;;;1.80;;
23159;SDS011;11748;50.844;4.396;2023-07-13T09:19:04;9.48;;;2.10;;
23159;SDS011;11748;50.844;4.396;2023-07-13T09:21:32;8.82;;;2.15;;
23159;SDS011;11748;50.844;4.396;2023-07-13T09:24:46;8.80;;;2.28;;
23159;SDS011;11748;50.844;4.396;2023-07-13T09:26:53;6.43;;;1.83;;
23159;SDS011;11748;50.844;4.396;2023-07-13T09:29:23;11.00;;;2.17;;
23159;SDS011;11748;50.844;4.396;2023-07-13T09:31:54;9.38;;;2.13;;
23159;SDS011;11748;50.844;4.396;2023-07-13T09:34:23;9.45;;;2.00;;
23159;SDS011;11748;50.844;4.396;2023-07-13T09:36:49;7.25;;;2.30;;
23159;SDS011;11748;50.844;4.396;2023-07-13T09:39:16;6.70;;;1.95;;
23159;SDS011;11748;50.844;4.396;2023-07-13T09:44:50;11.20;;;2.10;;
23159;SDS011;11748;50.844;4.396;2023-07-13T09:47:22;6.05;;;1.70;;
23159;SDS011;11748;50.844;4.396;2023-07-13T09:49:54;7.55;;;2.10;;
23159;SDS011;11748;50.844;4.396;2023-07-13T09:52:45;8.50;;;2.42;;
23159;SDS011;11748;50.844;4.396;2023-07-13T09:55:32;10.13;;;2.30;;
23159;SDS011;11748;50.844;4.396;2023-07-13T09:58:03;12.32;;;2.35;;
23159;SDS011;11748;50.844;4.396;2023-07-13T10:00:30;7.25;;;2.03;;
23159;SDS011;11748;50.844;4.396;2023-07-13T10:03:04;9.80;;;2.15;;
23159;SDS011;11748;50.844;4.396;2023-07-13T10:05:39;6.38;;;2.00;;
23159;SDS011;11748;50.844;4.396;2023-07-13T10:08:16;9.63;;;1.70;;
23159;SDS011;11748;50.844;4.396;2023-07-13T10:10:44;5.93;;;1.65;;
23159;SDS011;11748;50.844;4.396;2023-07-13T10:13:24;7.13;;;1.60;;
23159;SDS011;11748;50.844;4.396;2023-07-13T10:15:57;6.40;;;1.83;;
23159;SDS011;11748;50.844;4.396;2023-07-13T10:18:24;6.07;;;1.70;;
23159;SDS011;11748;50.844;4.396;2023-07-13T10:20:58;17.40;;;1.50;;
23159;SDS011;11748;50.844;4.396;2023-07-13T10:23:35;7.10;;;1.45;;
23159;SDS011;11748;50.844;4.396;2023-07-13T10:26:01;8.02;;;1.83;;
23159;SDS011;11748;50.844;4.396;2023-07-13T10:28:29;6.10;;;1.80;;
23159;SDS011;11748;50.844;4.396;2023-07-13T10:30:59;6.22;;;1.77;;
23159;SDS011;11748;50.844;4.396;2023-07-13T10:33:27;3.22;;;1.20;;
23159;SDS011;11748;50.844;4.396;2023-07-13T10:35:56;6.80;;;1.70;;
23159;SDS011;11748;50.844;4.396;2023-07-13T10:38:37;5.33;;;1.57;;
23159;SDS011;11748;50.844;4.396;2023-07-13T10:41:05;7.13;;;1.75;;
23159;SDS011;11748;50.844;4.396;2023-07-13T10:43:36;4.65;;;1.52;;
23159;SDS011;11748;50.844;4.396;2023-07-13T10:46:07;8.85;;;2.10;;
23159;SDS011;11748;50.844;4.396;2023-07-13T10:48:34;4.78;;;1.30;;
23159;SDS011;11748;50.844;4.396;2023-07-13T10:51:02;8.13;;;1.60;;
23159;SDS011;11748;50.844;4.396;2023-07-13T10:53:32;8.73;;;1.67;;
23159;SDS011;11748;50.844;4.396;2023-07-13T10:56:01;6.60;;;1.23;;
23159;SDS011;11748;50.844;4.396;2023-07-13T10:58:39;6.20;;;1.60;;
23159;SDS011;11748;50.844;4.396;2023-07-13T11:01:09;7.10;;;1.80;;
23159;SDS011;11748;50.844;4.396;2023-07-13T11:03:36;5.78;;;1.67;;
23159;SDS011;11748;50.844;4.396;2023-07-13T11:21:19;5.55;;;1.52;;
23159;SDS011;11748;50.844;4.396;2023-07-13T11:24:04;5.80;;;1.35;;
23159;SDS011;11748;50.844;4.396;2023-07-13T11:26:40;7.72;;;1.42;;
23159;SDS011;11748;50.844;4.396;2023-07-13T11:31:40;5.68;;;1.63;;
23159;SDS011;11748;50.844;4.396;2023-07-13T11:34:11;5.35;;;1.20;;
23159;SDS011;11748;50.844;4.396;2023-07-13T11:36:42;4.78;;;1.52;;
23159;SDS011;11748;50.844;4.396;2023-07-13T11:39:16;8.25;;;1.60;;
23159;SDS011;11748;50.844;4.396;2023-07-13T11:41:50;7.05;;;1.63;;
23159;SDS011;11748;50.844;4.396;2023-07-13T11:44:19;5.38;;;1.77;;
23159;SDS011;11748;50.844;4.396;2023-07-13T11:46:50;6.80;;;1.52;;
23159;SDS011;11748;50.844;4.396;2023-07-13T11:49:24;3.70;;;1.08;;
23159;SDS011;11748;50.844;4.396;2023-07-13T11:52:01;4.93;;;1.40;;
23159;SDS011;11748;50.844;4.396;2023-07-13T11:56:59;5.28;;;1.63;;
23159;SDS011;11748;50.844;4.396;2023-07-13T11:59:31;7.50;;;1.30;;
23159;SDS011;11748;50.844;4.396;2023-07-13T12:01:58;4.88;;;1.38;;
23159;SDS011;11748;50.844;4.396;2023-07-13T12:04:31;6.80;;;1.67;;
23159;SDS011;11748;50.844;4.396;2023-07-13T12:07:06;6.18;;;1.50;;
23159;SDS011;11748;50.844;4.396;2023-07-13T12:09:39;6.70;;;1.45;;
23159;SDS011;11748;50.844;4.396;2023-07-13T12:12:28;5.47;;;1.80;;
23159;SDS011;11748;50.844;4.396;2023-07-13T12:14:53;6.53;;;1.35;;
23159;SDS011;11748;50.844;4.396;2023-07-13T12:17:21;6.07;;;1.55;;
23159;SDS011;11748;50.844;4.396;2023-07-13T12:19:48;5.35;;;1.33;;
23159;SDS011;11748;50.844;4.396;2023-07-13T12:22:16;3.50;;;1.27;;
23159;SDS011;11748;50.844;4.396;2023-07-13T12:24:43;7.35;;;1.90;;
23159;SDS011;11748;50.844;4.396;2023-07-13T12:27:18;6.45;;;1.60;;
23159;SDS011;11748;50.844;4.396;2023-07-13T12:29:49;3.95;;;1.30;;
23159;SDS011;11748;50.844;4.396;2023-07-13T12:32:23;4.47;;;1.25;;
23159;SDS011;11748;50.844;4.396;2023-07-13T12:35:02;2.45;;;1.10;;
23159;SDS011;11748;50.844;4.396;2023-07-13T12:37:42;3.97;;;1.27;;
23159;SDS011;11748;50.844;4.396;2023-07-13T12:40:18;2.90;;;1.05;;
23159;SDS011;11748;50.844;4.396;2023-07-13T12:42:47;4.40;;;1.38;;
23159;SDS011;11748;50.844;4.396;2023-07-13T12:45:22;6.05;;;1.73;;
23159;SDS011;11748;50.844;4.396;2023-07-13T12:47:52;3.40;;;1.70;;
23159;SDS011;11748;50.844;4.396;2023-07-13T12:50:22;4.55;;;1.27;;
23159;SDS011;11748;50.844;4.396;2023-07-13T12:52:55;5.90;;;1.70;;
23159;SDS011;11748;50.844;4.396;2023-07-13T12:55:29;4.40;;;1.92;;
23159;SDS011;11748;50.844;4.396;2023-07-13T12:58:04;8.68;;;2.60;;
23159;SDS011;11748;50.844;4.396;2023-07-13T13:00:35;7.03;;;2.37;;
23159;SDS011;11748;50.844;4.396;2023-07-13T13:03:21;5.45;;;2.25;;
23159;SDS011;11748;50.844;4.396;2023-07-13T13:05:47;4.88;;;1.95;;
23159;SDS011;11748;50.844;4.396;2023-07-13T13:08:13;4.22;;;1.55;;
23159;SDS011;11748;50.844;4.396;2023-07-13T13:10:39;5.32;;;1.55;;
23159;SDS011;11748;50.844;4.396;2023-07-13T13:13:05;6.07;;;1.50;;
23159;SDS011;11748;50.844;4.396;2023-07-13T13:15:31;4.68;;;1.60;;
23159;SDS011;11748;50.844;4.396;2023-07-13T13:17:57;6.93;;;1.55;;
23159;SDS011;11748;50.844;4.396;2023-07-13T13:20:23;4.90;;;1.52;;
23159;SDS011;11748;50.844;4.396;2023-07-13T13:22:50;2.95;;;1.70;;
23159;SDS011;11748;50.844;4.396;2023-07-13T13:25:17;5.30;;;1.90;;
23159;SDS011;11748;50.844;4.396;2023-07-13T13:27:43;3.63;;;1.83;;
23159;SDS011;11748;50.844;4.396;2023-07-13T13:32:37;4.22;;;1.60;;
23159;SDS011;11748;50.844;4.396;2023-07-13T13:35:04;5.07;;;1.70;;
23159;SDS011;11748;50.844;4.396;2023-07-13T13:37:31;4.63;;;1.70;;
23159;SDS011;11748;50.844;4.396;2023-07-13T13:39:57;5.72;;;1.60;;
23159;SDS011;11748;50.844;4.396;2023-07-13T13:42:22;4.03;;;1.70;;
23159;SDS011;11748;50.844;4.396;2023-07-13T13:44:50;4.75;;;1.60;;
23159;SDS011;11748;50.844;4.396;2023-07-13T13:47:33;3.88;;;1.58;;
23159;SDS011;11748;50.844;4.396;2023-07-13T13:50:01;7.40;;;1.70;;
23159;SDS011;11748;50.844;4.396;2023-07-13T13:52:36;4.60;;;1.30;;
23159;SDS011;11748;50.844;4.396;2023-07-13T13:55:04;2.67;;;1.30;;
23159;SDS011;11748;50.844;4.396;2023-07-13T13:57:37;4.95;;;1.58;;
23159;SDS011;11748;50.844;4.396;2023-07-13T14:00:02;5.53;;;1.50;;
23159;SDS011;11748;50.844;4.396;2023-07-13T14:02:28;4.13;;;1.70;;
23159;SDS011;11748;50.844;4.396;2023-07-13T14:04:59;2.72;;;1.00;;
23159;SDS011;11748;50.844;4.396;2023-07-13T14:07:27;5.07;;;1.27;;
23159;SDS011;11748;50.844;4.396;2023-07-13T14:09:56;7.18;;;1.60;;
23159;SDS011;11748;50.844;4.396;2023-07-13T14:12:23;3.10;;;0.95;;
23159;SDS011;11748;50.844;4.396;2023-07-13T14:14:53;5.28;;;1.13;;
23159;SDS011;11748;50.844;4.396;2023-07-13T14:17:20;2.90;;;1.25;;
23159;SDS011;11748;50.844;4.396;2023-07-13T14:19:49;3.50;;;1.27;;
23159;SDS011;11748;50.844;4.396;2023-07-13T14:22:25;5.75;;;1.90;;
23159;SDS011;11748;50.844;4.396;2023-07-13T14:24:54;6.97;;;1.17;;
23159;SDS011;11748;50.844;4.396;2023-07-13T14:27:22;2.80;;;1.15;;
23159;SDS011;11748;50.844;4.396;2023-07-13T14:29:47;2.80;;;1.60;;
23159;SDS011;11748;50.844;4.396;2023-07-13T14:32:13;4.97;;;1.15;;
23159;SDS011;11748;50.844;4.396;2023-07-13T14:34:39;3.47;;;1.00;;
23159;SDS011;11748;50.844;4.396;2023-07-13T14:37:05;3.08;;;1.15;;
23159;SDS011;11748;50.844;4.396;2023-07-13T14:39:34;4.82;;;1.55;;
23159;SDS011;11748;50.844;4.396;2023-07-13T14:41:59;4.13;;;1.40;;
23159;SDS011;11748;50.844;4.396;2023-07-13T14:44:29;1.58;;;1.08;;
23159;SDS011;11748;50.844;4.396;2023-07-13T14:46:57;5.57;;;1.40;;
23159;SDS011;11748;50.844;4.396;2023-07-13T14:49:24;3.53;;;1.00;;
23159;SDS011;11748;50.844;4.396;2023-07-13T14:51:55;3.50;;;1.30;;
23159;SDS011;11748;50.844;4.396;2023-07-13T14:54:22;3.67;;;1.40;;
23159;SDS011;11748;50.844;4.396;2023-07-13T14:56:48;2.42;;;1.25;;
23159;SDS011;11748;50.844;4.396;2023-07-13T14:59:14;3.20;;;1.10;;
23159;SDS011;11748;50.844;4.396;2023-07-13T15:01:40;4.22;;;1.10;;
23159;SDS011;11748;50.844;4.396;2023-07-13T15:04:06;3.80;;;1.10;;
23159;SDS011;11748;50.844;4.396;2023-07-13T15:06:39;2.60;;;0.95;;
23159;SDS011;11748;50.844;4.396;2023-07-13T15:09:18;2.10;;;1.00;;
23159;SDS011;11748;50.844;4.396;2023-07-13T15:11:44;4.50;;;1.23;;
23159;SDS011;11748;50.844;4.396;2023-07-13T15:14:09;3.80;;;1.23;;
23159;SDS011;11748;50.844;4.396;2023-07-13T15:16:35;2.90;;;1.27;;
23159;SDS011;11748;50.844;4.396;2023-07-13T15:19:01;3.70;;;1.08;;